Tiempo atmosférico en la estación meteorológica de Ólvega, Soria (1039 m.)



Fecha
DESCASC
Temp. máxima en grados centígrados (hora)
DESCASC
Temp. mínima en grados centígrados (hora)
DESCASC
Temp. media en grados centígrados
DESCASC
Racha de viento máxima en m/sg (hora)
DESCASC
Velocidad máxima media en intervalos de 10 minutos(hora)
DESCASC
Precipitaciones diarias en mm
DESCASC
Precipitaciones de 00:00 a 06:00 en mm
DESCASC
Precipitaciones de 06:00 a 12:00 en mm
DESCASC
Precipitaciones de 12:00 a 18:00 en mm
DESCASC
Precipitaciones de 18:00 a 24:00 en mm
DESCASC
17-09-2020 26.1 (16:30) 17.4 (22:20) 21.8 11.11 (12:50) 6.39 (15:10) 1 0 0 0 1
15-09-2020 28.4 (17:20) 15.6 (09:50) 22 8.89 (17:30) 5.28 (02:20) 0.4 0 0.4 0 0
14-09-2020 29.3 (16:30) 13.6 (08:30) 21.4 11.11 (23:40) 6.94 (22:40) 0 0 0 0 0
13-09-2020 31.7 (17:00) 11 (00:00) 21.4 12.22 (22:40) 7.5 (19:50) 0 0 0 0 0
12-09-2020 27 (16:00) 9.1 (07:30) 18.1 9.17 (17:40) 5.28 (16:30) 0 0 0 0 0
11-09-2020 26.9 (15:50) 8.4 (00:00) 17.6 7.5 (17:20) 4.72 (17:30) 0 0 0 0 0
10-09-2020 25.1 (16:40) 10.9 (00:00) 18 9.72 (16:20) 6.39 (16:00) 0 0 0 0 0
09-09-2020 25 (16:50) 8.6 (07:10) 16.8 11.11 (19:40) 6.11 (19:30) 0 0 0 0 0
08-09-2020 23.2 (18:40) 5.8 (00:00) 14.5 8.89 (00:10) 5.83 (00:20) 0 0 0 0 0
07-09-2020 18.4 (16:20) 9.4 (06:50) 13.9 14.17 (15:40) 10.28 (15:50) 0 0 0 0 0
06-09-2020 19.1 (15:00) 11.5 (00:00) 15.3 9.72 (18:20) 5.83 (19:50) 0 0 0 0 0
05-09-2020 25.6 (16:00) 12.2 (00:00) 18.9 9.72 (17:40) 5.56 (18:30) 0 0 0 0 0
04-09-2020 32.2 (17:20) 10.6 (00:00) 21.4 10.28 (21:40) 5.56 (20:20) 0 0 0 0 0
03-09-2020 28.2 (14:00) 8.4 (00:00) 18.3 8.06 (17:40) 4.72 (16:40) 0 0 0 0 0
02-09-2020 23 (16:30) 8.3 (00:00) 15.7 10.28 (10:40) 5.28 (11:00) 0 0 0 0 0
01-09-2020 22.8 (15:40) 8.7 (00:00) 15.7 9.17 (20:30) 5.83 (20:30) 0 0 0 0 0
31-08-2020 25 (16:30) 4 (00:00) 14.5 8.61 (18:30) 5.83 (18:30) 0 0 0 0 0
30-08-2020 16.3 (16:30) 3.6 (00:00) 9.9 12.22 (17:40) 6.39 (17:50) 0 0 0 0 0
29-08-2020 18.6 (15:20) 5.6 (00:00) 12.1 12.22 (17:10) 7.78 (17:20) 0 0 0 0 0
28-08-2020 22.4 (13:10) 11.4 (00:00) 16.9 9.72 (14:40) 6.11 (16:30) 0 0 0 0 0
27-08-2020 32.3 (17:30) 14.1 (00:00) 23.2 10 (16:00) 6.67 (16:00) 0 0 0 0 0
26-08-2020 31.7 (16:20) 13.3 (00:00) 22.5 8.89 (17:30) 5.83 (16:50) 0 0 0 0 0
25-08-2020 33.9 (17:40) 13.5 (00:00) 23.7 10 (17:00) 5.56 (17:50) 0 0 0 0 0
24-08-2020 27.6 (17:10) 8.8 (06:00) 18.2 8.33 (18:40) 5.28 (17:40) 0 0 0 0 0
23-08-2020 24.8 (18:00) 13.8 (00:00) 19.3 7.78 (18:40) 4.72 (15:40) 0 0 0 0 0
22-08-2020 27.3 (16:30) 14.3 (00:00) 20.8 11.39 (16:10) 5.56 (20:10) 0 0 0 0 0
21-08-2020 31.8 (16:50) 15 (07:10) 23.4 11.11 (16:00) 6.11 (12:00) 0 0 0 0 0

Gráficas

Temp. máximas Temp. mínimas Temp. medias Precipitaciones Rachas de viento máximas Velocidades máximas media en intervalos de 10 minutos

Datos horarios

Fecha y hora oficial Temperatura (ºC) Velocidad del viento (km/h) Dirección del viento Racha (km/h) Dirección de racha Precipitación (mm) Presión (hPa) Tendencia (hPa) Humedad (%)
2020-09-19 23:00:00 13.9 12 Sudoeste 25 Oeste 0 -- -- 85
2020-09-19 22:00:00 13.9 14 Sur 24 Sudoeste 0 -- -- 84
2020-09-19 21:00:00 14.3 11 Sur 30 Sudoeste 0 -- -- 81
2020-09-19 20:00:00 14.9 11 Sudoeste 27 Sudoeste 0 -- -- 80
2020-09-19 19:00:00 15.8 9 Sur 40 Sudoeste 0 -- -- 78
2020-09-19 18:00:00 14.3 21 Sudoeste 41 Sudoeste 0.4 -- -- 79
2020-09-19 17:00:00 15.2 18 Sudoeste 47 Sur 1 -- -- 85
2020-09-19 16:00:00 15.3 20 Sur 53 Sudoeste 3.4 -- -- 84
2020-09-19 15:00:00 14.9 23 Sur 53 Sudoeste 0.4 -- -- 79
2020-09-19 14:00:00 16.7 28 Sur 50 Sur 0 -- -- 68
2020-09-19 13:00:00 16.4 26 Sur 48 Sur 0 -- -- 71
2020-09-19 12:00:00 15.4 27 Sur 58 Sudeste 0 -- -- 76
2020-09-19 11:00:00 14.3 21 Sur 58 Sur 0 -- -- 80
2020-09-19 10:00:00 13.8 27 Sur 59 Sur 0.2 -- -- 81
2020-09-19 09:00:00 13.2 17 Sur 58 Sudeste 0 -- -- 85
2020-09-19 08:00:00 12.6 24 Sur 50 Sudeste 0 -- -- 87
2020-09-19 07:00:00 12.4 24 Sudeste 48 Sudeste 0 -- -- 84
2020-09-19 06:00:00 12.4 23 Sur 69 Sur 0.4 -- -- 80
2020-09-19 05:00:00 12.8 31 Sur 63 Sur 0.6 -- -- 76
2020-09-19 04:00:00 14.7 28 Sudeste 64 Sudeste 0 -- -- 75
2020-09-19 03:00:00 14.4 24 Sudeste 53 Sur 0 -- -- 76
2020-09-19 02:00:00 14.1 20 Sudeste 43 Sur 0.2 -- -- 76
2020-09-19 01:00:00 14.4 22 Sudeste 35 Sur 0 -- -- 74
2020-09-19 00:00:00 14.4 19 Sudeste 41 Sur 0 -- -- 73
2020-09-18 23:00:00 14.5 16 Sur 34 Sudeste 0 -- -- 73
2020-09-18 22:00:00 13.8 21 Sudeste 45 Sudeste 0 -- -- 79
2020-09-18 21:00:00 14.6 19 Sur 41 Sudeste 2 -- -- 78
2020-09-18 20:00:00 18.2 14 Sur 33 Sudeste 0 -- -- 57
2020-09-18 19:00:00 19.5 12 Sudeste 34 Sudeste 0 -- -- 52
2020-09-18 18:00:00 21.4 18 Sur 40 Sudeste 0 -- -- 47
2020-09-18 17:00:00 21.1 15 Sur 27 Sur 0 -- -- 55
2020-09-18 16:00:00 18.4 16 Sudeste 38 Sur 0.2 -- -- 68
2020-09-18 15:00:00 18.2 18 Sur 36 Sudeste 0 -- -- 66
2020-09-18 14:00:00 21.8 11 Sur 42 Sudeste 0 -- -- 49
2020-09-18 13:00:00 20.2 16 Sur 36 Sudeste 0 -- -- 57
2020-09-18 12:00:00 19.3 21 Sudeste 37 Sudeste 0.2 -- -- 65
2020-09-18 11:00:00 18.4 22 Sudeste 39 Sudeste 0 -- -- 71
2020-09-18 10:00:00 18.1 18 Sudeste 35 Sudeste 0 -- -- 70
2020-09-18 09:00:00 17.2 21 Sudeste 35 Sudeste 0 -- -- 74
2020-09-18 08:00:00 17.7 23 Sudeste 44 Sudeste 0 -- -- 71
2020-09-18 07:00:00 17.3 19 Sudeste 30 Sudeste 0 -- -- 75
2020-09-18 06:00:00 16.8 13 Sudeste 20 Sudeste 0 -- -- 79
2020-09-18 05:00:00 15.5 6 Sur 16 Sudoeste 0.2 -- -- 87
2020-09-18 04:00:00 15.7 4 Nordeste 17 Sur 0 -- -- 82
2020-09-18 03:00:00 16.3 12 Sudeste 24 Sudeste 0 -- -- 78
2020-09-18 02:00:00 17.4 17 Sur 36 Sur 0 -- -- 74
2020-09-18 01:00:00 17.8 24 Sur 48 Sudeste 0.6 -- -- 74
2020-09-18 00:00:00 18.7 14 Sudeste 19 Sudeste 0 -- -- 64
2020-09-17 23:00:00 17.6 11 Sudeste 16 Sudeste 0 -- -- 68
2020-09-17 22:00:00 19 9 Sur 19 Sudeste 0 -- -- 66
2020-09-17 21:00:00 20.8 13 Sur 22 Sur 0 -- -- 59
2020-09-17 20:00:00 20.5 9 Sur 17 Sur 0.2 -- -- 63
2020-09-17 19:00:00 19.3 7 Sur 30 Este 0.8 -- -- 74
2020-09-17 18:00:00 24 15 Sudeste 24 Sudeste 0 -- -- 43
2020-09-17 17:00:00 25 14 Sudeste 29 Sudeste 0 -- -- 42
2020-09-17 16:00:00 25.1 18 Sudeste 39 Sudeste 0 -- -- 42
2020-09-17 15:00:00 24.9 20 Sudeste 35 Sudeste 0 -- -- 42
2020-09-17 14:00:00 23.7 15 Sudeste 34 Sudeste 0 -- -- 43
2020-09-17 13:00:00 24.7 21 Sudeste 40 Sudeste 0 -- -- 40
2020-09-17 12:00:00 22.2 18 Sudeste 31 Sudeste 0 -- -- 42
2020-09-17 11:00:00 23 15 Sudeste 24 Sudeste 0 -- -- 43
2020-09-17 10:00:00 19.9 3 Sudeste 18 Sur 0 -- -- 57
2020-09-17 09:00:00 19.4 14 Sudeste 22 Sudeste 0 -- -- 57
2020-09-17 08:00:00 17.7 3 Este 14 Sudeste 0 -- -- 64
2020-09-17 07:00:00 18.3 9 Sur 23 Sudeste 0 -- -- 65
2020-09-17 06:00:00 19.3 15 Sudeste 26 Sudeste 0 -- -- 59
2020-09-17 05:00:00 18.3 8 Sur 15 Sur 0 -- -- 64
2020-09-17 04:00:00 20 9 Sur 13 Sudeste 0 -- -- 54
2020-09-17 03:00:00 19.2 4 Este 11 Nordeste 0 -- -- 56
2020-09-17 02:00:00 20.1 8 Sudeste 15 Sudeste 0 -- -- 53
2020-09-17 01:00:00 17.8 2 Sudeste 10 Sudeste 0 -- -- 58
2020-09-17 00:00:00 18.3 0 Calma 6 Sur 0 -- -- 55
2020-09-16 23:00:00 18.7 5 Noroeste 8 Noroeste 0 -- -- 54
2020-09-16 22:00:00 19.4 0 Calma 13 Sur 0 -- -- 54
2020-09-16 21:00:00 20.3 6 Sur 10 Sur 0 -- -- 51
2020-09-16 20:00:00 22.6 4 Oeste 17 Sudeste 0 -- -- 46
2020-09-16 19:00:00 24.5 13 Sudeste 25 Este 0 -- -- 41
2020-09-16 18:00:00 25.5 15 Sudeste 26 Este 0 -- -- 41
2020-09-16 17:00:00 26.7 13 Este 21 Sudeste 0 -- -- 38
2020-09-16 16:00:00 27 10 Nordeste 23 Nordeste 0 -- -- 36
2020-09-16 15:00:00 29.3 6 Sur 21 Sudoeste 0 -- -- 30
2020-09-16 14:00:00 27.1 7 Norte 19 Noroeste 0 -- -- 37
2020-09-16 13:00:00 28.8 5 Noroeste 23 Sudoeste 0 -- -- 33
2020-09-16 12:00:00 27.6 5 Nordeste 15 Este 0 -- -- 35
2020-09-16 11:00:00 26.5 9 Sudeste 14 Sudeste 0 -- -- 40
2020-09-16 10:00:00 23.4 11 Sudeste 19 Sudeste 0 -- -- 44
2020-09-16 09:00:00 18.9 12 Sudeste 19 Sudeste 0 -- -- 53
2020-09-16 08:00:00 15.5 4 Este 16 Sudeste 0 -- -- 63
2020-09-16 07:00:00 16.3 9 Sudeste 21 Sudeste 0 -- -- 60
2020-09-16 06:00:00 17.5 9 Sur 29 Sudeste 0 -- -- 56
2020-09-16 05:00:00 17.8 15 Sur 24 Sudeste 0 -- -- 55
2020-09-16 04:00:00 17.5 15 Sudeste 25 Sudeste 0 -- -- 58
2020-09-16 03:00:00 17.9 14 Sudeste 24 Sudeste 0 -- -- 60
2020-09-16 02:00:00 18.4 14 Sudeste 21 Sudeste 0 -- -- 59
2020-09-16 01:00:00 18.8 12 Sudeste 20 Sudeste 0 -- -- 58
2020-09-16 00:00:00 18.3 11 Sudeste 20 Sudeste 0 -- -- 59
2020-09-15 23:00:00 18.6 10 Sudeste 16 Sudeste 0 -- -- 54
2020-09-15 22:00:00 17.3 6 Sudeste 9 Sudeste 0 -- -- 57
2020-09-15 21:00:00 18.5 0 Calma 7 Sur 0 -- -- 51
2020-09-15 20:00:00 23.7 4 Sudoeste 20 Sudoeste 0 -- -- 36
2020-09-15 19:00:00 26.4 13 Sudoeste 28 Sudoeste 0 -- -- 34
2020-09-15 18:00:00 28.2 13 Sudoeste 32 Sudoeste 0 -- -- 34
2020-09-15 17:00:00 26.5 15 Sudoeste 29 Sudoeste 0 -- -- 36
2020-09-15 16:00:00 26.6 11 Sur 28 Sudoeste 0 -- -- 40
2020-09-15 15:00:00 26.6 12 Sur 28 Sudeste 0 -- -- 38
2020-09-15 14:00:00 25.5 11 Sur 27 Sur 0 -- -- 41
2020-09-15 13:00:00 23.9 10 Sur 29 Sudeste 0 -- -- 45
2020-09-15 12:00:00 20.5 14 Sur 28 Sur 0 -- -- 56
2020-09-15 11:00:00 18.3 9 Sudeste 21 Sur 0.2 -- -- 66
2020-09-15 10:00:00 15.7 13 Sur 28 Sudoeste 0.2 -- -- 78
2020-09-15 09:00:00 15.9 6 Sudeste 10 Sudeste 0 -- -- 75
2020-09-15 08:00:00 16.8 6 Nordeste 18 Sur 0 -- -- 62
2020-09-15 07:00:00 17.2 13 Sudeste 24 Sudeste 0 -- -- 59
2020-09-15 06:00:00 17.7 19 Sudeste 25 Sudeste 0 -- -- 59
2020-09-15 05:00:00 19.7 10 Sur 17 Sur 0 -- -- 53
2020-09-15 04:00:00 20 11 Sur 24 Sudeste 0 -- -- 51
2020-09-15 03:00:00 20.8 10 Sudeste 32 Sur 0 -- -- 49
2020-09-15 02:00:00 21.5 10 Sur 22 Sur 0 -- -- 46
2020-09-15 01:00:00 21 11 Sudeste 26 Sudeste 0 -- -- 51
2020-09-15 00:00:00 21.6 19 Sudeste 40 Sudeste 0 -- -- 49
2020-09-14 23:00:00 21.8 17 Sudeste 39 Este 0 -- -- 49
2020-09-14 22:00:00 22.4 20 Sudeste 29 Sudeste 0 -- -- 44
2020-09-14 21:00:00 21.1 10 Sur 27 Sudeste 0 -- -- 44
2020-09-14 20:00:00 23.6 18 Sudeste 32 Este 0 -- -- 39
2020-09-14 19:00:00 24.7 22 Sudeste 35 Sudeste 0 -- -- 37
2020-09-14 18:00:00 25.7 19 Sudeste 33 Sudeste 0 -- -- 34
2020-09-14 17:00:00 28.1 16 Sudeste 32 Sudeste 0 -- -- 28
2020-09-14 16:00:00 28.4 13 Sudeste 28 Sudeste 0 -- -- 28
2020-09-14 15:00:00 27.8 14 Sur 27 Sudeste 0 -- -- 26
2020-09-14 14:00:00 28.1 15 Sur 30 Sudeste 0 -- -- 27
2020-09-14 13:00:00 27 13 Sur 27 Sudoeste 0 -- -- 30
2020-09-14 12:00:00 26.5 14 Sur 25 Sur 0 -- -- 30
2020-09-14 11:00:00 23.3 12 Sudeste 24 Sur 0 -- -- 39
2020-09-14 10:00:00 24.7 10 Sudeste 15 Sudeste 0 -- -- 37
2020-09-14 09:00:00 16.1 3 Sur 12 Este 0 -- -- 60
2020-09-14 08:00:00 14.9 8 Sudeste 14 Sudeste 0 -- -- 61
2020-09-14 07:00:00 14 5 Sudeste 9 Sudeste 0 -- -- 62
2020-09-14 06:00:00 16 3 Sudoeste 7 Sudeste 0 -- -- 56
2020-09-14 05:00:00 16.7 7 Sudeste 14 Sudeste 0 -- -- 55
2020-09-14 04:00:00 18.3 12 Sudeste 22 Sudeste 0 -- -- 50
2020-09-14 03:00:00 19.6 13 Sudeste 31 Sudeste 0 -- -- 47
2020-09-14 02:00:00 20.7 22 Sudeste 33 Sudeste 0 -- -- 43
2020-09-14 01:00:00 21.1 22 Sudeste 32 Sur 0 -- -- 45
2020-09-14 00:00:00 21.4 17 Sudeste 33 Sudeste 0 -- -- 41
2020-09-13 23:00:00 22.4 20 Sudeste 44 Sudeste 0 -- -- 33
2020-09-13 22:00:00 23.4 25 Sudeste 38 Sudeste 0 -- -- 30
2020-09-13 21:00:00 24 24 Sudeste 39 Sudeste 0 -- -- 32
2020-09-13 20:00:00 25.7 25 Sudeste 36 Sudeste 0 -- -- 32
2020-09-13 19:00:00 27.6 10 Sudeste 21 Sur 0 -- -- 28
2020-09-13 18:00:00 31.2 11 Sudoeste 25 Sudoeste 0 -- -- 22
2020-09-13 17:00:00 31.7 7 Oeste 23 Sudoeste 0 -- -- 22
2020-09-13 16:00:00 30.4 12 Sudoeste 28 Sur 0 -- -- 24
2020-09-13 15:00:00 29.8 12 Sur 27 Sur 0 -- -- 24
2020-09-13 14:00:00 28.4 12 Sur 29 Sur 0 -- -- 29
2020-09-13 13:00:00 27.3 15 Sur 30 Sur 0 -- -- 31
2020-09-13 12:00:00 26.8 10 Sur 22 Este 0 -- -- 36
2020-09-13 11:00:00 26 5 Sur 17 Sur 0 -- -- 39
2020-09-13 10:00:00 24 7 Sudeste 19 Sudeste 0 -- -- 43
2020-09-13 09:00:00 19.6 9 Sudeste 18 Sudeste 0 -- -- 49
2020-09-13 08:00:00 16.6 12 Sur 22 Sur 0 -- -- 47
2020-09-13 07:00:00 16 13 Sudeste 16 Sudeste 0 -- -- 50
2020-09-13 06:00:00 11.7 2 Sur 13 Sudeste 0 -- -- 74
2020-09-13 05:00:00 11.8 7 Sudeste 10 Sudeste 0 -- -- 76
2020-09-13 04:00:00 11.8 5 Sudeste 9 Sudeste 0 -- -- 77
2020-09-13 03:00:00 12 4 Sur 10 Sudeste 0 -- -- 67
2020-09-13 02:00:00 12.7 6 Sudeste 10 Sudeste 0 -- -- 67
2020-09-13 01:00:00 12.8 5 Sudeste 14 Este 0 -- -- 71
2020-09-13 00:00:00 13.1 5 Sudeste 10 Sudeste 0 -- -- 55
2020-09-12 23:00:00 13.8 4 Sudeste 9 Este 0 -- -- 60
2020-09-12 22:00:00 15 4 Sudeste 9 Sur 0 -- -- 66
2020-09-12 21:00:00 19.5 5 Noroeste 10 Nordeste 0 -- -- 55
2020-09-12 20:00:00 22.3 7 Norte 25 Nordeste 0 -- -- 48
2020-09-12 19:00:00 24.3 14 Nordeste 24 Nordeste 0 -- -- 44
2020-09-12 18:00:00 25.4 15 Norte 33 Nordeste 0 -- -- 41
2020-09-12 17:00:00 26 16 Norte 30 Norte 0 -- -- 38
2020-09-12 16:00:00 27 14 Norte 28 Norte 0 -- -- 33
2020-09-12 15:00:00 26 15 Norte 23 Norte 0 -- -- 37
2020-09-12 14:00:00 25.7 14 Norte 23 Norte 0 -- -- 33
2020-09-12 13:00:00 25.3 8 Noroeste 22 Noroeste 0 -- -- 33
2020-09-12 12:00:00 23.3 11 Norte 17 Norte 0 -- -- 41
2020-09-12 11:00:00 24.2 0 Calma 6 Este 0 -- -- 44
2020-09-12 10:00:00 21.7 0 Calma 5 Sudeste 0 -- -- 55
2020-09-12 09:00:00 14.4 3 Sudeste 5 Sudeste 0 -- -- 75
2020-09-12 08:00:00 9.3 3 Sur 9 Sudeste 0 -- -- 75
2020-09-12 07:00:00 10.3 3 Sudeste 9 Sudeste 0 -- -- 68
2020-09-12 06:00:00 12.4 6 Sudeste 10 Sur 0 -- -- 63
2020-09-12 05:00:00 11.4 2 Sur 11 Sudeste 0 -- -- 78
2020-09-12 04:00:00 12 3 Sur 14 Sudeste 0 -- -- 77
2020-09-12 03:00:00 12.2 7 Sudeste 11 Sudeste 0 -- -- 80
2020-09-12 02:00:00 12.8 3 Sudeste 8 Sudeste 0 -- -- 82
2020-09-12 01:00:00 13.9 5 Sudeste 14 Sudeste 0 -- -- 82
2020-09-12 00:00:00 14.6 3 Sur 7 Sur 0 -- -- 73
2020-09-11 23:00:00 16.4 3 Sudoeste 6 Sudoeste 0 -- -- 66
2020-09-11 22:00:00 17.3 3 Sudoeste 9 Nordeste 0 -- -- 60
2020-09-11 21:00:00 18.7 3 Noroeste 17 Nordeste 0 -- -- 50
2020-09-11 20:00:00 22.6 9 Norte 23 Nordeste 0 -- -- 42
2020-09-11 19:00:00 24.5 13 Norte 26 Norte 0 -- -- 41
2020-09-11 18:00:00 24.9 17 Norte 27 Norte 0 -- -- 41
2020-09-11 17:00:00 26.2 14 Norte 25 Norte 0 -- -- 39
2020-09-11 16:00:00 26.2 15 Norte 24 Noroeste 0 -- -- 38
2020-09-11 15:00:00 26.2 11 Noroeste 18 Noroeste 0 -- -- 33
2020-09-11 14:00:00 24.9 9 Norte 17 Noroeste 0 -- -- 36
2020-09-11 13:00:00 24.9 5 Noroeste 16 Norte 0 -- -- 38
2020-09-11 12:00:00 21.9 7 Norte 13 Norte 0 -- -- 50
2020-09-11 11:00:00 21.3 4 Noroeste 12 Noroeste 0 -- -- 54
2020-09-11 10:00:00 20.5 2 Noroeste 8 Sudeste 0 -- -- 57
2020-09-11 09:00:00 13.4 4 Sudeste 11 Sudeste 0 -- -- 84
2020-09-11 08:00:00 9.2 3 Sur 9 Sudeste 0 -- -- 91
2020-09-11 07:00:00 8.6 5 Sudeste 9 Sudeste 0 -- -- 91
2020-09-11 06:00:00 8.7 6 Sudeste 8 Sudeste 0 -- -- 88
2020-09-11 05:00:00 9.8 8 Sudeste 12 Sudeste 0 -- -- 85
2020-09-11 04:00:00 10.1 9 Sudeste 12 Sudeste 0 -- -- 82
2020-09-11 03:00:00 11.6 4 Sudeste 12 Sudeste 0 -- -- 75
2020-09-11 02:00:00 11.6 3 Sudeste 8 Sur 0 -- -- 73
2020-09-11 01:00:00 13.4 3 Este 11 Este 0 -- -- 67
2020-09-11 00:00:00 13.2 4 Sur 9 Sudoeste 0 -- -- 65
2020-09-10 23:00:00 15.9 3 Norte 19 Norte 0 -- -- 57
2020-09-10 22:00:00 17.6 13 Norte 23 Nordeste 0 -- -- 50
2020-09-10 21:00:00 18.3 9 Norte 24 Nordeste 0 -- -- 47
2020-09-10 20:00:00 21.1 17 Norte 32 Norte 0 -- -- 42
2020-09-10 19:00:00 23.1 19 Norte 32 Norte 0 -- -- 37
2020-09-10 18:00:00 24.4 21 Norte 35 Norte 0 -- -- 33
2020-09-10 17:00:00 24.9 19 Norte 35 Norte 0 -- -- 33
2020-09-10 16:00:00 24.6 23 Norte 34 Nordeste 0 -- -- 32
2020-09-10 15:00:00 24 18 Nordeste 31 Norte 0 -- -- 35
2020-09-10 14:00:00 23.5 12 Norte 28 Norte 0 -- -- 39
2020-09-10 13:00:00 22 15 Norte 32 Noroeste 0 -- -- 43
2020-09-10 12:00:00 21.8 21 Norte 35 Norte 0 -- -- 43
2020-09-10 11:00:00 20.6 16 Norte 25 Norte 0 -- -- 46
2020-09-10 10:00:00 20 6 Noroeste 10 Noroeste 0 -- -- 50
2020-09-10 09:00:00 16.2 2 Noroeste 5 Oeste 0 -- -- 65
2020-09-10 08:00:00 11.1 3 Oeste 8 Sudoeste 0 -- -- 78
2020-09-10 07:00:00 12.1 5 Oeste 12 Oeste 0 -- -- 75
2020-09-10 06:00:00 12 4 Oeste 10 Noroeste 0 -- -- 75
2020-09-10 05:00:00 13.5 9 Noroeste 16 Oeste 0 -- -- 68
2020-09-10 04:00:00 12.6 3 Oeste 9 Norte 0 -- -- 72
2020-09-10 03:00:00 12.8 3 Oeste 8 Sudoeste 0 -- -- 73
2020-09-10 02:00:00 13.6 3 Norte 16 Norte 0 -- -- 71
2020-09-10 01:00:00 14.8 8 Norte 22 Norte 0 -- -- 69
2020-09-10 00:00:00 15.9 15 Norte 25 Norte 0 -- -- 69
2020-09-09 23:00:00 16.5 10 Norte 23 Norte 0 -- -- 65
2020-09-09 22:00:00 17.7 10 Norte 17 Norte 0 -- -- 59
2020-09-09 21:00:00 18.8 8 Norte 24 Nordeste 0 -- -- 53
2020-09-09 20:00:00 21.4 17 Norte 40 Norte 0 -- -- 45
2020-09-09 19:00:00 24.1 16 Norte 31 Norte 0 -- -- 34
2020-09-09 18:00:00 24.8 14 Norte 33 Norte 0 -- -- 33
2020-09-09 17:00:00 24.6 16 Norte 29 Norte 0 -- -- 32
2020-09-09 16:00:00 24.7 14 Norte 28 Norte 0 -- -- 31
2020-09-09 15:00:00 23.8 13 Norte 30 Nordeste 0 -- -- 32
2020-09-09 14:00:00 23.4 13 Norte 25 Norte 0 -- -- 32
2020-09-09 13:00:00 23 10 Norte 19 Norte 0 -- -- 32
2020-09-09 12:00:00 22.4 8 Norte 15 Norte 0 -- -- 35
2020-09-09 11:00:00 23.3 6 Noroeste 12 Noroeste 0 -- -- 35
2020-09-09 10:00:00 20.6 3 Norte 17 Sudeste 0 -- -- 41
2020-09-09 09:00:00 15.8 5 Sur 11 Sudeste 0 -- -- 54
2020-09-09 08:00:00 9.5 7 Sudeste 12 Sudeste 0 -- -- 72
2020-09-09 07:00:00 8.8 0 Calma 9 Sudeste 0 -- -- 74
2020-09-09 06:00:00 10.5 5 Sudeste 11 Este 0 -- -- 67
2020-09-09 05:00:00 10.3 3 Sudeste 8 Sudeste 0 -- -- 69
2020-09-09 04:00:00 11.6 4 Sur 9 Sudoeste 0 -- -- 61
2020-09-09 03:00:00 12.3 3 Sudoeste 11 Sur 0 -- -- 60
2020-09-09 02:00:00 10.3 5 Sudeste 11 Sudeste 0 -- -- 65
2020-09-09 01:00:00 11 3 Sur 10 Sudeste 0 -- -- 61
2020-09-09 00:00:00 11.6 4 Sudeste 12 Sur 0 -- -- 59
2020-09-08 23:00:00 13.6 6 Norte 10 Norte 0 -- -- 52
2020-09-08 22:00:00 13.8 2 Sur 9 Sudeste 0 -- -- 53
2020-09-08 21:00:00 16.5 6 Sudeste 22 Este 0 -- -- 43
2020-09-08 20:00:00 19.9 14 Sudeste 24 Este 0 -- -- 36
2020-09-08 19:00:00 22.3 16 Este 28 Este 0 -- -- 31
2020-09-08 18:00:00 21.9 18 Norte 29 Norte 0 -- -- 34
2020-09-08 17:00:00 22.1 14 Norte 27 Norte 0 -- -- 34
2020-09-08 16:00:00 22.1 14 Norte 24 Norte 0 -- -- 34
2020-09-08 15:00:00 21 14 Norte 30 Norte 0 -- -- 35
2020-09-08 14:00:00 19.9 13 Norte 27 Norte 0 -- -- 39
2020-09-08 13:00:00 19.1 16 Norte 29 Nordeste 0 -- -- 44
2020-09-08 12:00:00 17.8 13 Noroeste 22 Noroeste 0 -- -- 48
2020-09-08 11:00:00 15.9 7 Norte 17 Noroeste 0 -- -- 54
2020-09-08 10:00:00 14.1 7 Norte 13 Norte 0 -- -- 60
2020-09-08 09:00:00 12.9 0 Calma 7 Sur 0 -- -- 68
2020-09-08 08:00:00 5.9 0 Calma 11 Sudeste 0 -- -- 91
2020-09-08 07:00:00 6.1 5 Sudeste 10 Sudeste 0 -- -- 89
2020-09-08 06:00:00 6.6 2 Sur 8 Sudeste 0 -- -- 88
2020-09-08 05:00:00 7.1 4 Sudeste 8 Sur 0 -- -- 86
2020-09-08 04:00:00 8.1 2 Norte 10 Norte 0 -- -- 85
2020-09-08 03:00:00 8.9 5 Noroeste 18 Norte 0 -- -- 81
2020-09-08 02:00:00 9.8 10 Norte 24 Norte 0 -- -- 77
2020-09-08 01:00:00 10.3 15 Norte 32 Norte 0 -- -- 74
2020-09-08 00:00:00 10.4 15 Norte 24 Norte 0 -- -- 71
2020-09-07 23:00:00 10.5 12 Norte 26 Noroeste 0 -- -- 70
2020-09-07 22:00:00 11.2 15 Norte 32 Norte 0 -- -- 66
2020-09-07 21:00:00 12.5 21 Norte 35 Norte 0 -- -- 59
2020-09-07 20:00:00 14.7 21 Norte 43 Norte 0 -- -- 50
2020-09-07 19:00:00 16.9 23 Norte 42 Norte 0 -- -- 43
2020-09-07 18:00:00 18 24 Norte 43 Norte 0 -- -- 39
2020-09-07 17:00:00 18.1 24 Norte 47 Nordeste 0 -- -- 38
2020-09-07 16:00:00 17.7 32 Norte 51 Norte 0 -- -- 40
2020-09-07 15:00:00 17 33 Norte 45 Norte 0 -- -- 43
2020-09-07 14:00:00 16.4 24 Norte 45 Norte 0 -- -- 47
2020-09-07 13:00:00 15.3 24 Norte 42 Norte 0 -- -- 52
2020-09-07 12:00:00 14.1 22 Norte 37 Norte 0 -- -- 59
2020-09-07 11:00:00 12.6 17 Norte 31 Norte 0 -- -- 66
2020-09-07 10:00:00 10.8 19 Norte 32 Norte 0 -- -- 75
2020-09-07 09:00:00 10.5 19 Norte 30 Norte 0 -- -- 74
2020-09-07 08:00:00 10.4 18 Norte 32 Norte 0 -- -- 73
2020-09-07 07:00:00 9.6 10 Nordeste 24 Nordeste 0 -- -- 77
2020-09-07 06:00:00 10 10 Norte 26 Norte 0 -- -- 77
2020-09-07 05:00:00 10.1 12 Norte 26 Norte 0 -- -- 77
2020-09-07 04:00:00 10.8 12 Norte 26 Norte 0 -- -- 77
2020-09-07 03:00:00 10.8 16 Norte 27 Nordeste 0 -- -- 76
2020-09-07 02:00:00 10.8 15 Norte 27 Norte 0 -- -- 74
2020-09-07 01:00:00 11 19 Norte 31 Norte 0 -- -- 75
2020-09-07 00:00:00 11.7 19 Norte 30 Norte 0 -- -- 76
2020-09-06 23:00:00 11.8 13 Norte 29 Norte 0 -- -- 75
2020-09-06 22:00:00 12.2 13 Norte 29 Nordeste 0 -- -- 73
2020-09-06 21:00:00 13.1 15 Norte 32 Norte 0 -- -- 67
2020-09-06 20:00:00 15.7 18 Norte 32 Nordeste 0 -- -- 59
2020-09-06 19:00:00 17.4 19 Norte 35 Nordeste 0 -- -- 55
2020-09-06 18:00:00 18.2 19 Norte 30 Norte 0 -- -- 54
2020-09-06 17:00:00 17.9 14 Norte 31 Norte 0 -- -- 59
2020-09-06 16:00:00 18.8 16 Nordeste 30 Norte 0 -- -- 57
2020-09-06 15:00:00 19.1 15 Norte 26 Norte 0 -- -- 57
2020-09-06 14:00:00 17.8 15 Norte 26 Norte 0 -- -- 61
2020-09-06 13:00:00 17.1 14 Norte 25 Nordeste 0 -- -- 64
2020-09-06 12:00:00 16.6 8 Norte 19 Norte 0 -- -- 67
2020-09-06 11:00:00 14.5 9 Norte 17 Noroeste 0 -- -- 76
2020-09-06 10:00:00 13.4 10 Norte 16 Norte 0 -- -- 80
2020-09-06 09:00:00 12.8 9 Nordeste 16 Nordeste 0 -- -- 84
2020-09-06 08:00:00 12.5 8 Norte 19 Nordeste 0 -- -- 86
2020-09-06 07:00:00 12.5 5 Nordeste 13 Nordeste 0 -- -- 86
2020-09-06 06:00:00 12.9 5 Norte 13 Nordeste 0 -- -- 85
2020-09-06 05:00:00 13.1 9 Norte 14 Norte 0 -- -- 85
2020-09-06 04:00:00 13.3 5 Norte 13 Nordeste 0 -- -- 86
2020-09-06 03:00:00 13.5 9 Norte 15 Norte 0 -- -- 86
2020-09-06 02:00:00 14 6 Nordeste 13 Nordeste 0 -- -- 85
2020-09-06 01:00:00 14.1 5 Nordeste 13 Nordeste 0 -- -- 85
2020-09-06 00:00:00 13.5 3 Noroeste 13 Nordeste 0 -- -- 87
2020-09-05 23:00:00 14.2 5 Noroeste 12 Norte 0 -- -- 83
2020-09-05 22:00:00 15.5 7 Norte 17 Norte 0 -- -- 79
2020-09-05 21:00:00 17 7 Norte 23 Norte 0 -- -- 73
2020-09-05 20:00:00 19.7 15 Nordeste 26 Nordeste 0 -- -- 64
2020-09-05 19:00:00 23.1 16 Norte 31 Nordeste 0 -- -- 55
2020-09-05 18:00:00 24.2 19 Norte 35 Norte 0 -- -- 50
2020-09-05 17:00:00 25.2 17 Nordeste 32 Norte 0 -- -- 47
2020-09-05 16:00:00 25.6 19 Norte 30 Nordeste 0 -- -- 44
2020-09-05 15:00:00 24.7 16 Norte 29 Norte 0 -- -- 46
2020-09-05 14:00:00 23.8 14 Norte 25 Norte 0 -- -- 48
2020-09-05 13:00:00 22.9 14 Norte 24 Norte 0 -- -- 53
2020-09-05 12:00:00 21.7 12 Norte 25 Norte 0 -- -- 56
2020-09-05 11:00:00 21 9 Norte 17 Norte 0 -- -- 57
2020-09-05 10:00:00 19.7 10 Norte 16 Norte 0 -- -- 53
2020-09-05 09:00:00 18.1 2 Nordeste 6 Sudeste 0 -- -- 55
2020-09-05 08:00:00 12.7 0 Calma 8 Este 0 -- -- 68
2020-09-05 07:00:00 13.5 3 Sudeste 10 Sur 0 -- -- 66
2020-09-05 06:00:00 13.7 2 Sur 8 Sudeste 0 -- -- 68
2020-09-05 05:00:00 14.8 4 Sur 12 Sudeste 0 -- -- 66
2020-09-05 04:00:00 14.4 5 Sudeste 9 Sudeste 0 -- -- 69
2020-09-05 03:00:00 17.3 4 Sur 15 Sudeste 0 -- -- 52
2020-09-05 02:00:00 18.7 6 Este 19 Sudeste 0 -- -- 48
2020-09-05 01:00:00 19.3 8 Sudeste 19 Sudeste 0 -- -- 45
2020-09-05 00:00:00 19.3 4 Sur 18 Este 0 -- -- 43
2020-09-04 23:00:00 21.2 4 Noroeste 19 Sur 0 -- -- 37
2020-09-04 22:00:00 21.7 11 Sudeste 37 Sur 0 -- -- 36
2020-09-04 21:00:00 23.1 12 Sudeste 33 Sudeste 0 -- -- 36
2020-09-04 20:00:00 26.3 19 Sudeste 31 Sudeste 0 -- -- 34
2020-09-04 19:00:00 29.7 14 Sudeste 22 Sudeste 0 -- -- 26
2020-09-04 18:00:00 31.3 7 Sur 20 Sudoeste 0 -- -- 22
2020-09-04 17:00:00 31.2 13 Sur 24 Sur 0 -- -- 23
2020-09-04 16:00:00 30.6 15 Sudoeste 31 Sudoeste 0 -- -- 23
2020-09-04 15:00:00 30.9 8 Oeste 20 Sudeste 0 -- -- 24
2020-09-04 14:00:00 29.9 4 Este 17 Sur 0 -- -- 26
2020-09-04 13:00:00 27.9 10 Sur 20 Sudoeste 0 -- -- 33
2020-09-04 12:00:00 26.9 9 Sur 17 Sudeste 0 -- -- 37
2020-09-04 11:00:00 25.8 5 Sur 15 Sur 0 -- -- 41
2020-09-04 10:00:00 25.7 4 Oeste 8 Oeste 0 -- -- 40
2020-09-04 09:00:00 20 3 Nordeste 22 Sur 0 -- -- 42
2020-09-04 08:00:00 12.5 3 Oeste 14 Sudeste 0 -- -- 62
2020-09-04 07:00:00 11.6 5 Este 13 Sudeste 0 -- -- 54
2020-09-04 06:00:00 11.5 8 Sudeste 11 Sudeste 0 -- -- 59
2020-09-04 05:00:00 10.6 3 Sur 8 Sudeste 0 -- -- 61
2020-09-04 04:00:00 11.9 0 Calma 5 Sudoeste 0 -- -- 54
2020-09-04 03:00:00 11.8 2 Sudeste 12 Sudeste 0 -- -- 58
2020-09-04 02:00:00 14.6 4 Sudeste 16 Sudeste 0 -- -- 53
2020-09-04 01:00:00 16.3 5 Sudeste 16 Este 0 -- -- 47
2020-09-04 00:00:00 16 3 Este 8 Sudeste 0 -- -- 47
2020-09-03 23:00:00 15.5 3 Sur 9 Sudeste 0 -- -- 40
2020-09-03 22:00:00 17.9 4 Este 17 Sudeste 0 -- -- 42
2020-09-03 21:00:00 17.9 5 Sur 13 Sudeste 0 -- -- 47
2020-09-03 20:00:00 24.4 9 Norte 19 Norte 0 -- -- 33
2020-09-03 19:00:00 26.1 13 Norte 26 Noroeste 0 -- -- 33
2020-09-03 18:00:00 26.9 14 Norte 29 Norte 0 -- -- 32
2020-09-03 17:00:00 27 14 Norte 27 Norte 0 -- -- 33
2020-09-03 16:00:00 27 14 Norte 27 Norte 0 -- -- 31
2020-09-03 15:00:00 27.4 14 Norte 25 Noroeste 0 -- -- 30
2020-09-03 14:00:00 28.2 5 Oeste 18 Oeste 0 -- -- 27
2020-09-03 13:00:00 26.5 5 Oeste 21 Sudoeste 0 -- -- 27
2020-09-03 12:00:00 25.3 7 Sudoeste 16 Sudoeste 0 -- -- 29
2020-09-03 11:00:00 23.6 6 Noroeste 11 Norte 0 -- -- 27
2020-09-03 10:00:00 21.5 5 Norte 13 Sudeste 0 -- -- 36
2020-09-03 09:00:00 16.7 4 Sudeste 8 Sudeste 0 -- -- 43
2020-09-03 08:00:00 9.1 6 Sudeste 14 Sudeste 0 -- -- 62
2020-09-03 07:00:00 9.2 5 Sudeste 13 Sudeste 0 -- -- 62
2020-09-03 06:00:00 8.4 7 Sudeste 13 Sudeste 0 -- -- 66
2020-09-03 05:00:00 10.3 3 Sur 19 Sudeste 0 -- -- 58
2020-09-03 04:00:00 11.6 15 Sudeste 22 Sudeste 0 -- -- 53
2020-09-03 03:00:00 9.8 5 Sudeste 10 Sudeste 0 -- -- 63
2020-09-03 02:00:00 9.3 4 Sudeste 7 Sudeste 0 -- -- 69
2020-09-03 01:00:00 9.6 4 Sudeste 12 Sudeste 0 -- -- 75
2020-09-03 00:00:00 10.8 5 Sur 6 Sur 0 -- -- 73
2020-09-02 23:00:00 13.1 3 Sudoeste 12 Noroeste 0 -- -- 63
2020-09-02 22:00:00 15 6 Norte 18 Norte 0 -- -- 54
2020-09-02 21:00:00 16.6 10 Norte 19 Norte 0 -- -- 49
2020-09-02 20:00:00 20.1 13 Norte 26 Norte 0 -- -- 36
2020-09-02 19:00:00 21.8 15 Nordeste 24 Nordeste 0 -- -- 33
2020-09-02 18:00:00 22.8 14 Norte 28 Nordeste 0 -- -- 32
2020-09-02 17:00:00 22.8 12 Norte 24 Norte 0 -- -- 33
2020-09-02 16:00:00 22.2 13 Norte 24 Norte 0 -- -- 34
2020-09-02 15:00:00 21.1 12 Norte 25 Norte 0 -- -- 36
2020-09-02 14:00:00 19.8 11 Norte 23 Norte 0 -- -- 35
2020-09-02 13:00:00 18.5 11 Norte 30 Norte 0 -- -- 36
2020-09-02 12:00:00 17.9 12 Norte 25 Norte 0 -- -- 41
2020-09-02 11:00:00 16.2 19 Nordeste 37 Norte 0 -- -- 51
2020-09-02 10:00:00 15.4 12 Norte 20 Noroeste 0 -- -- 61
2020-09-02 09:00:00 15 2 Sudeste 9 Norte 0 -- -- 60
2020-09-02 08:00:00 9.5 3 Nordeste 8 Nordeste 0 -- -- 79
2020-09-02 07:00:00 8.5 3 Oeste 9 Noroeste 0 -- -- 84
2020-09-02 06:00:00 9.2 0 Calma 8 Noroeste 0 -- -- 82
2020-09-02 05:00:00 10.6 5 Norte 10 Norte 0 -- -- 78
2020-09-02 04:00:00 10.8 3 Noroeste 11 Norte 0 -- -- 76
2020-09-02 03:00:00 10.7 4 Noroeste 8 Norte 0 -- -- 75
2020-09-02 02:00:00 11.3 5 Norte 13 Norte 0 -- -- 68
2020-09-02 01:00:00 12.4 12 Norte 19 Nordeste 0 -- -- 60
2020-09-02 00:00:00 12.7 9 Norte 17 Norte 0 -- -- 54
2020-09-01 23:00:00 13.6 5 Norte 18 Norte 0 -- -- 52
2020-09-01 22:00:00 14.3 11 Norte 25 Nordeste 0 -- -- 51
2020-09-01 21:00:00 16.2 16 Nordeste 33 Norte 0 -- -- 48
2020-09-01 20:00:00 19.8 17 Norte 27 Norte 0 -- -- 38
2020-09-01 19:00:00 21 14 Norte 27 Nordeste 0 -- -- 32
2020-09-01 18:00:00 20.6 16 Norte 28 Norte 0 -- -- 32
2020-09-01 17:00:00 22.7 18 Nordeste 28 Norte 0 -- -- 31
2020-09-01 16:00:00 22.6 15 Norte 27 Norte 0 -- -- 32
2020-09-01 15:00:00 22.1 13 Nordeste 28 Norte 0 -- -- 31
2020-09-01 14:00:00 21.7 10 Norte 25 Norte 0 -- -- 31
2020-09-01 13:00:00 21.5 9 Nordeste 15 Nordeste 0 -- -- 27
2020-09-01 12:00:00 21.3 4 Nordeste 9 Norte 0 -- -- 33
2020-09-01 11:00:00 18.4 2 Sudoeste 8 Noroeste 0 -- -- 39
2020-09-01 10:00:00 16 4 Oeste 9 Sudeste 0 -- -- 45
2020-09-01 09:00:00 12.1 0 Calma 6 Sudoeste 0 -- -- 59
2020-09-01 08:00:00 10.3 3 Oeste 12 Sudeste 0 -- -- 63
2020-09-01 07:00:00 9.6 5 Sur 8 Sudeste 0 -- -- 67
2020-09-01 06:00:00 9.5 0 Calma 10 Sudeste 0 -- -- 67
2020-09-01 05:00:00 9.7 2 Sur 8 Sudeste 0 -- -- 67
2020-09-01 04:00:00 10.7 3 Este 13 Sudeste 0 -- -- 61
2020-09-01 03:00:00 10.3 7 Sur 13 Sudeste 0 -- -- 65
2020-09-01 02:00:00 9 6 Sudeste 10 Sudeste 0 -- -- 74
2020-09-01 01:00:00 10 2 Sudeste 9 Sudoeste 0 -- -- 69
2020-09-01 00:00:00 12.4 3 Sudoeste 7 Sudoeste 0 -- -- 61
2020-08-31 23:00:00 11.9 4 Sudeste 9 Sudeste 0 -- -- 52
2020-08-31 22:00:00 14.9 4 Sudoeste 9 Oeste 0 -- -- 39
2020-08-31 21:00:00 16.7 5 Oeste 14 Norte 0 -- -- 33
2020-08-31 20:00:00 17.7 8 Norte 27 Nordeste 0 -- -- 32
2020-08-31 19:00:00 20.1 17 Norte 31 Nordeste 0 -- -- 32
2020-08-31 18:00:00 22.1 17 Norte 28 Norte 0 -- -- 31
2020-08-31 17:00:00 24.8 9 Sudoeste 24 Sudoeste 0 -- -- 24
2020-08-31 16:00:00 23.6 9 Sur 21 Sudoeste 0 -- -- 23
2020-08-31 15:00:00 23.2 7 Sudoeste 21 Sudoeste 0 -- -- 23
2020-08-31 14:00:00 21.2 6 Oeste 17 Sudeste 0 -- -- 25
2020-08-31 13:00:00 19.6 7 Sudeste 15 Este 0 -- -- 29
2020-08-31 12:00:00 17.8 6 Oeste 19 Oeste 0 -- -- 36
2020-08-31 11:00:00 15.7 6 Sur 14 Oeste 0 -- -- 45
2020-08-31 10:00:00 14.2 3 Este 8 Sudeste 0 -- -- 58
2020-08-31 09:00:00 10.1 7 Sudeste 13 Sudeste 0 -- -- 78
2020-08-31 08:00:00 4.4 9 Sudeste 12 Sudeste 0 -- -- 94
2020-08-31 07:00:00 4 6 Sudeste 9 Sudeste 0 -- -- 94
2020-08-31 06:00:00 4.8 7 Sudeste 11 Sudeste 0 -- -- 92
2020-08-31 05:00:00 5.6 0 Calma 7 Sudeste 0 -- -- 90
2020-08-31 04:00:00 6.6 0 Calma 4 Oeste 0 -- -- 89
2020-08-31 03:00:00 7.1 3 Oeste 6 Nordeste 0 -- -- 88
2020-08-31 02:00:00 7.5 2 Noroeste 8 Norte 0 -- -- 85
2020-08-31 01:00:00 8.2 5 Norte 14 Norte 0 -- -- 83
2020-08-31 00:00:00 9.2 9 Norte 23 Norte 0 -- -- 80
2020-08-30 23:00:00 9.3 10 Nordeste 21 Norte 0 -- -- 79
2020-08-30 22:00:00 10.3 12 Norte 32 Norte 0 -- -- 77
2020-08-30 21:00:00 11.1 14 Norte 29 Norte 0 -- -- 69
2020-08-30 20:00:00 13.6 20 Norte 34 Norte 0 -- -- 57
2020-08-30 19:00:00 15.1 17 Norte 33 Norte 0 -- -- 51
2020-08-30 18:00:00 15.6 19 Norte 44 Norte 0 -- -- 47
2020-08-30 17:00:00 16 19 Norte 33 Noroeste 0 -- -- 48
2020-08-30 16:00:00 14.9 20 Noroeste 36 Norte 0 -- -- 51
2020-08-30 15:00:00 14.2 21 Norte 35 Norte 0 -- -- 52
2020-08-30 14:00:00 14.7 17 Norte 32 Norte 0 -- -- 49
2020-08-30 13:00:00 13.6 19 Noroeste 34 Nordeste 0 -- -- 49
2020-08-30 12:00:00 13.8 18 Norte 31 Norte 0 -- -- 47
2020-08-30 11:00:00 12.9 18 Norte 31 Norte 0 -- -- 48
2020-08-30 10:00:00 11.5 18 Norte 30 Noroeste 0 -- -- 58
2020-08-30 09:00:00 11.5 0 Calma 8 Sudeste 0 -- -- 63
2020-08-30 08:00:00 4 3 Sur 6 Sudoeste 0 -- -- 91
2020-08-30 07:00:00 4.1 4 Sur 9 Sudoeste 0 -- -- 88
2020-08-30 06:00:00 4.9 3 Sudeste 9 Norte 0 -- -- 85
2020-08-30 05:00:00 6.3 2 Norte 16 Norte 0 -- -- 85
2020-08-30 04:00:00 7.7 2 Este 13 Norte 0 -- -- 80
2020-08-30 03:00:00 7.6 4 Norte 20 Noroeste 0 -- -- 78
2020-08-30 02:00:00 8.5 15 Norte 41 Noroeste 0 -- -- 71
2020-08-30 01:00:00 9.6 12 Norte 25 Nordeste 0 -- -- 56
2020-08-30 00:00:00 9.6 10 Norte 21 Norte 0 -- -- 72
2020-08-29 23:00:00 10.1 13 Norte 36 Noroeste 0 -- -- 72
2020-08-29 22:00:00 11.3 15 Norte 34 Noroeste 0 -- -- 70
2020-08-29 21:00:00 11.8 16 Noroeste 36 Noroeste 0 -- -- 67
2020-08-29 20:00:00 13.3 21 Noroeste 30 Noroeste 0 -- -- 64
2020-08-29 19:00:00 12.5 12 Noroeste 30 Noroeste 0 -- -- 72
2020-08-29 18:00:00 16.1 22 Noroeste 44 Noroeste 0 -- -- 45
2020-08-29 17:00:00 17.3 21 Noroeste 42 Noroeste 0 -- -- 44
2020-08-29 16:00:00 17.5 22 Noroeste 37 Noroeste 0 -- -- 42
2020-08-29 15:00:00 17.6 22 Noroeste 38 Noroeste 0 -- -- 43
2020-08-29 14:00:00 16.9 20 Norte 38 Norte 0 -- -- 45
2020-08-29 13:00:00 16.2 17 Noroeste 31 Noroeste 0 -- -- 45
2020-08-29 12:00:00 14.2 21 Noroeste 35 Noroeste 0 -- -- 53
2020-08-29 11:00:00 13.3 20 Norte 35 Norte 0 -- -- 60
2020-08-29 10:00:00 13.3 11 Norte 18 Noroeste 0 -- -- 59
2020-08-29 09:00:00 10.1 0 Calma 6 Sudoeste 0 -- -- 77
2020-08-29 08:00:00 5.6 4 Sur 8 Sudeste 0 -- -- 89
2020-08-29 07:00:00 7.9 4 Norte 12 Nordeste 0 -- -- 84
2020-08-29 06:00:00 9 4 Nordeste 12 Norte 0 -- -- 81
2020-08-29 05:00:00 10.1 10 Norte 23 Norte 0 -- -- 76
2020-08-29 04:00:00 10.6 9 Nordeste 16 Nordeste -- -- -- 73
2020-08-29 03:00:00 10.3 6 Norte 18 Norte 0 -- -- 75
2020-08-29 02:00:00 10.7 7 Norte 25 Nordeste 0 -- -- 74
2020-08-29 01:00:00 11.3 15 Norte 28 Nordeste 0 -- -- 72
2020-08-29 00:00:00 11.4 16 Norte 30 Norte 0 -- -- 76
2020-08-28 23:00:00 11.6 18 Norte 30 Norte 0 -- -- 81
2020-08-28 22:00:00 11.8 14 Norte 28 Norte 0 -- -- 85
2020-08-28 21:00:00 11.7 15 Norte 31 Norte 0 -- -- 90
2020-08-28 20:00:00 12.7 20 Norte 32 Nordeste 0 -- -- 88
2020-08-28 19:00:00 14.7 18 Norte 30 Norte 0 -- -- 78
2020-08-28 18:00:00 14.9 19 Norte 32 Norte 0 -- -- 80
2020-08-28 17:00:00 15.4 19 Norte 32 Norte 0 -- -- 81
2020-08-28 16:00:00 19 17 Norte 32 Nordeste 0 -- -- 69
2020-08-28 15:00:00 20.6 19 Norte 35 Norte 0 -- -- 65
2020-08-28 14:00:00 21.4 17 Norte 30 Nordeste 0 -- -- 63
2020-08-28 13:00:00 21.5 12 Norte 22 Norte 0 -- -- 65
2020-08-28 12:00:00 20.9 10 Norte 17 Norte 0 -- -- 69
2020-08-28 11:00:00 19.4 10 Norte 17 Norte 0 -- -- 75
2020-08-28 10:00:00 18 11 Nordeste 17 Nordeste 0 -- -- 81
2020-08-28 09:00:00 17 9 Norte 13 Norte 0 -- -- 87
2020-08-28 08:00:00 16.8 3 Nordeste 7 Nordeste 0 -- -- 90
2020-08-28 07:00:00 16.3 3 Norte 8 Oeste 0 -- -- 90
2020-08-28 06:00:00 14.2 4 Sur 8 Nordeste 0 -- -- 92
2020-08-28 05:00:00 14.8 0 Calma 9 Sudeste 0 -- -- 88
2020-08-28 04:00:00 15.7 4 Sur 12 Sudeste 0 -- -- 89
2020-08-28 03:00:00 15.3 0 Calma 8 Sudeste 0 -- -- 89
2020-08-28 02:00:00 15.6 4 Sudeste 8 Sudeste 0 -- -- 89
2020-08-28 01:00:00 17.1 3 Sur 5 Sudoeste 0 -- -- 83
2020-08-28 00:00:00 18.4 2 Noroeste 13 Noroeste 0 -- -- 81
2020-08-27 23:00:00 19.9 9 Noroeste 20 Nordeste 0 -- -- 74
2020-08-27 22:00:00 21.7 5 Norte 15 Norte 0 -- -- 66
2020-08-27 21:00:00 23.4 12 Norte 31 Norte 0 -- -- 60
2020-08-27 20:00:00 27.6 14 Norte 30 Nordeste 0 -- -- 40
2020-08-27 19:00:00 29.4 15 Norte 30 Nordeste 0 -- -- 36
2020-08-27 18:00:00 31.6 13 Norte 32 Norte 0 -- -- 24
2020-08-27 17:00:00 32 13 Norte 32 Norte 0 -- -- 32
2020-08-27 16:00:00 30.4 24 Nordeste 36 Nordeste 0 -- -- 37
2020-08-27 15:00:00 30.8 10 Noroeste 27 Nordeste 0 -- -- 34
2020-08-27 14:00:00 28.9 16 Norte 31 Nordeste 0 -- -- 40
2020-08-27 13:00:00 28.2 18 Nordeste 27 Nordeste 0 -- -- 46
2020-08-27 12:00:00 28.5 5 Norte 13 Norte 0 -- -- 44
2020-08-27 11:00:00 26.6 5 Noroeste 10 Noroeste 0 -- -- 47
2020-08-27 10:00:00 23.3 7 Norte 11 Norte 0 -- -- 57
2020-08-27 09:00:00 22.7 0 Calma 4 Sudeste 0 -- -- 58
2020-08-27 08:00:00 15.5 0 Calma 18 Sudeste 0 -- -- 81
2020-08-27 07:00:00 14.9 4 Sur 12 Sudeste 0 -- -- 87
2020-08-27 06:00:00 14.4 5 Sudeste 12 Sudeste 0 -- -- 88
2020-08-27 05:00:00 14.7 4 Sudeste 9 Sudoeste 0 -- -- 81
2020-08-27 04:00:00 15.3 8 Sudeste 12 Sudeste 0 -- -- 80
2020-08-27 03:00:00 15.3 2 Sur 11 Sudeste 0 -- -- 86
2020-08-27 02:00:00 16 5 Sur 9 Sudeste 0 -- -- 87
2020-08-27 01:00:00 16.3 3 Sur 7 Oeste 0 -- -- 83
2020-08-27 00:00:00 18.7 6 Sudoeste 8 Oeste 0 -- -- 78
2020-08-26 23:00:00 20.7 0 Calma 6 Nordeste 0 -- -- 71
2020-08-26 22:00:00 21.7 0 Calma 15 Norte 0 -- -- 67
2020-08-26 21:00:00 24.3 10 Norte 21 Norte 0 -- -- 55
2020-08-26 20:00:00 27 14 Norte 28 Norte 0 -- -- 39
2020-08-26 19:00:00 28.5 16 Norte 29 Nordeste 0 -- -- 40
2020-08-26 18:00:00 29.7 19 Norte 32 Nordeste 0 -- -- 37
2020-08-26 17:00:00 30.8 19 Norte 32 Norte 0 -- -- 36
2020-08-26 16:00:00 31.3 16 Norte 30 Nordeste 0 -- -- 36
2020-08-26 15:00:00 30 18 Norte 28 Norte 0 -- -- 37
2020-08-26 14:00:00 29.7 14 Noroeste 24 Noroeste 0 -- -- 36
2020-08-26 13:00:00 28 10 Norte 23 Norte 0 -- -- 40
2020-08-26 12:00:00 27.2 6 Norte 13 Norte 0 -- -- 41
2020-08-26 11:00:00 25.6 6 Norte 12 Norte 0 -- -- 42
2020-08-26 10:00:00 25 3 Norte 6 Norte 0 -- -- 44
2020-08-26 09:00:00 20.7 2 Este 11 Sudeste 0 -- -- 60
2020-08-26 08:00:00 13.5 0 Calma 13 Sudeste 0 -- -- 82
2020-08-26 07:00:00 13.6 5 Sudeste 8 Sudeste 0 -- -- 83
2020-08-26 06:00:00 13.8 0 Calma 10 Sudeste 0 -- -- 83
2020-08-26 05:00:00 14.3 6 Sudeste 11 Sudeste 0 -- -- 81
2020-08-26 04:00:00 14.6 4 Sudeste 9 Sur 0 -- -- 79
2020-08-26 03:00:00 16.9 0 Calma 8 Sudoeste 0 -- -- 72
2020-08-26 02:00:00 16.2 4 Sudoeste 9 Sudoeste 0 -- -- 72
2020-08-26 01:00:00 17.6 3 Sur 9 Sudoeste 0 -- -- 66
2020-08-26 00:00:00 19.3 5 Sudoeste 10 Noroeste 0 -- -- 60
2020-08-25 23:00:00 20.4 3 Noroeste 13 Oeste 0 -- -- 55
2020-08-25 22:00:00 21.2 5 Sur 9 Sudoeste 0 -- -- 45
2020-08-25 21:00:00 25.2 4 Noroeste 16 Noroeste 0 -- -- 36
2020-08-25 20:00:00 29.2 10 Norte 22 Norte 0 -- -- 29
2020-08-25 19:00:00 31.4 12 Norte 27 Noroeste 0 -- -- 26
2020-08-25 18:00:00 33.4 15 Oeste 36 Noroeste 0 -- -- 21
2020-08-25 17:00:00 33.4 18 Sudoeste 36 Sudoeste 0 -- -- 20
2020-08-25 16:00:00 32.7 17 Sudoeste 36 Oeste 0 -- -- 22
2020-08-25 15:00:00 31.9 12 Sur 32 Sur 0 -- -- 26
2020-08-25 14:00:00 30.7 12 Sudoeste 30 Sudoeste 0 -- -- 28
2020-08-25 13:00:00 29.8 13 Sudoeste 26 Sudoeste 0 -- -- 30
2020-08-25 12:00:00 29 10 Sudoeste 21 Sudoeste 0 -- -- 28
2020-08-25 11:00:00 27.9 11 Sudoeste 20 Sudoeste 0 -- -- 32
2020-08-25 10:00:00 27.4 4 Sudeste 13 Sudoeste 0 -- -- 32
2020-08-25 09:00:00 22.9 4 Sur 8 Sudoeste 0 -- -- 48
2020-08-25 08:00:00 15.5 2 Nordeste 25 Sudeste 0 -- -- 70
2020-08-25 07:00:00 17.5 17 Sudeste 23 Sudeste 0 -- -- 67
2020-08-25 06:00:00 17.1 14 Sudeste 20 Sudeste 0 -- -- 65
2020-08-25 05:00:00 18.5 11 Sur 23 Sudeste 0 -- -- 58
2020-08-25 04:00:00 18.9 15 Sudeste 22 Sudeste 0 -- -- 58
2020-08-25 03:00:00 18 12 Sudeste 19 Sudeste 0 -- -- 61
2020-08-25 02:00:00 14 2 Sur 7 Sudeste 0 -- -- 73
2020-08-25 01:00:00 15.3 4 Sudeste 12 Sur 0 -- -- 68
2020-08-25 00:00:00 14.5 5 Sudeste 9 Sur 0 -- -- 71
2020-08-24 23:00:00 15.3 4 Sudeste 10 Sudeste 0 -- -- 67
2020-08-24 22:00:00 16 3 Sur 10 Sudoeste 0 -- -- 65
2020-08-24 21:00:00 20.6 2 Noroeste 18 Nordeste 0 -- -- 51
2020-08-24 20:00:00 23 12 Nordeste 24 Norte 0 -- -- 46
2020-08-24 19:00:00 24.8 13 Norte 30 Norte 0 -- -- 43
2020-08-24 18:00:00 26.1 14 Norte 26 Norte 0 -- -- 40
2020-08-24 17:00:00 26.7 12 Norte 25 Norte 0 -- -- 39
2020-08-24 16:00:00 25.9 13 Norte 27 Norte 0 -- -- 40
2020-08-24 15:00:00 25.3 14 Norte 23 Noroeste 0 -- -- 40
2020-08-24 14:00:00 23.9 8 Norte 20 Noroeste 0 -- -- 43
2020-08-24 13:00:00 21.9 12 Norte 17 Norte 0 -- -- 47
2020-08-24 12:00:00 20.7 8 Noroeste 18 Noroeste 0 -- -- 48
2020-08-24 11:00:00 18.1 10 Norte 20 Norte 0 -- -- 56
2020-08-24 10:00:00 17 7 Norte 14 Norte 0 -- -- 58
2020-08-24 09:00:00 16.5 2 Noroeste 10 Norte 0 -- -- 63
2020-08-24 08:00:00 9 0 Calma 5 Nordeste 0 -- -- 87
2020-08-24 07:00:00 9.4 2 Sur 6 Sudoeste 0 -- -- 85
2020-08-24 06:00:00 8.8 2 Sur 7 Sur 0 -- -- 84
2020-08-24 05:00:00 10.1 3 Sur 11 Sudeste 0 -- -- 82
2020-08-24 04:00:00 11.6 7 Sudeste 11 Sudeste 0 -- -- 80
2020-08-24 03:00:00 12.2 3 Sudoeste 10 Sudoeste 0 -- -- 79
2020-08-24 02:00:00 13.1 2 Norte 8 Noroeste 0 -- -- 77
2020-08-24 01:00:00 14 0 Calma 9 Sudoeste 0 -- -- 75
2020-08-24 00:00:00 14.7 3 Noroeste 12 Norte 0 -- -- 73
2020-08-23 23:00:00 15.6 6 Norte 13 Norte 0 -- -- 70
2020-08-23 22:00:00 16.7 6 Norte 15 Norte 0 -- -- 65
2020-08-23 21:00:00 18 12 Nordeste 26 Nordeste 0 -- -- 61
2020-08-23 20:00:00 21 15 Norte 26 Nordeste 0 -- -- 48
2020-08-23 19:00:00 23.4 15 Norte 28 Norte 0 -- -- 39
2020-08-23 18:00:00 24.8 14 Norte 27 Nordeste 0 -- -- 36
2020-08-23 17:00:00 24.4 16 Nordeste 27 Norte 0 -- -- 36
2020-08-23 16:00:00 24.1 16 Norte 26 Norte 0 -- -- 35
2020-08-23 15:00:00 23.5 15 Norte 27 Norte 0 -- -- 33
2020-08-23 14:00:00 22.7 13 Norte 23 Norte 0 -- -- 37
2020-08-23 13:00:00 20.9 14 Norte 24 Noroeste 0 -- -- 50
2020-08-23 12:00:00 20.4 8 Norte 19 Norte 0 -- -- 50
2020-08-23 11:00:00 18.4 8 Norte 17 Norte 0 -- -- 58
2020-08-23 10:00:00 17.1 10 Nordeste 17 Norte 0 -- -- 66
2020-08-23 09:00:00 16.5 8 Norte 13 Norte 0 -- -- 69
2020-08-23 08:00:00 14.1 8 Norte 17 Norte 0 -- -- 78
2020-08-23 07:00:00 14.1 13 Nordeste 21 Nordeste 0 -- -- 78
2020-08-23 06:00:00 14.1 8 Nordeste 16 Nordeste 0 -- -- 83
2020-08-23 05:00:00 14.3 8 Norte 15 Nordeste 0 -- -- 85
2020-08-23 04:00:00 14.5 7 Norte 13 Norte 0 -- -- 85
2020-08-23 03:00:00 14.4 7 Norte 12 Norte 0 -- -- 86
2020-08-23 02:00:00 14.1 0 Calma 9 Noroeste 0 -- -- 86
2020-08-23 01:00:00 13.9 3 Noroeste 12 Norte 0 -- -- 83
2020-08-23 00:00:00 14.9 6 Norte 18 Nordeste 0 -- -- 79
2020-08-22 23:00:00 15.9 10 Norte 20 Norte 0 -- -- 73
2020-08-22 22:00:00 17.1 12 Norte 21 Norte 0 -- -- 69
2020-08-22 21:00:00 19.1 13 Norte 30 Nordeste 0 -- -- 61
2020-08-22 20:00:00 22.2 17 Norte 30 Norte 0 -- -- 51
2020-08-22 19:00:00 25.3 14 Norte 26 Norte 0 -- -- 44
2020-08-22 18:00:00 25.7 14 Norte 30 Norte 0 -- -- 42
2020-08-22 17:00:00 27.3 14 Norte 41 Nordeste 0 -- -- 39
2020-08-22 16:00:00 26.8 16 Norte 27 Norte 0 -- -- 40
2020-08-22 15:00:00 27 9 Nordeste 30 Noroeste 0 -- -- 41
2020-08-22 14:00:00 25.5 13 Nordeste 33 Norte 0 -- -- 45
2020-08-22 13:00:00 24.8 12 Nordeste 24 Nordeste 0 -- -- 48
2020-08-22 12:00:00 23.9 5 Este 16 Norte 0 -- -- 51
2020-08-22 11:00:00 23.5 5 Norte 11 Noroeste 0 -- -- 52
2020-08-22 10:00:00 20.7 6 Noroeste 10 Norte 0 -- -- 70
2020-08-22 09:00:00 18.6 7 Nordeste 10 Nordeste 0 -- -- 80
2020-08-22 08:00:00 15.9 3 Norte 7 Norte 0 -- -- 93
2020-08-22 07:00:00 15.1 3 Este 9 Sur 0 -- -- 93
2020-08-22 06:00:00 15.3 4 Sudeste 10 Sudeste 0 -- -- 92
2020-08-22 05:00:00 14.9 3 Sudeste 12 Sur 0 -- -- 91
2020-08-22 04:00:00 16.7 5 Sudeste 8 Noroeste 0 -- -- 93
2020-08-22 03:00:00 16.6 6 Noroeste 9 Oeste 0 -- -- 92
2020-08-22 02:00:00 17.4 5 Noroeste 10 Norte 0 -- -- 90
2020-08-22 01:00:00 18.4 4 Noroeste 10 Nordeste 0 -- -- 82
2020-08-22 00:00:00 20.3 6 Sur 11 Este 0 -- -- 69
2020-08-21 23:00:00 20.7 6 Sudoeste 21 Sudoeste 0 -- -- 69
2020-08-21 22:00:00 20.9 5 Sudoeste 21 Sudoeste 0 -- -- 73
2020-08-21 21:00:00 23.5 6 Oeste 36 Sudoeste 0 -- -- 63
2020-08-21 20:00:00 27.5 4 Sudoeste 25 Sur 0 -- -- 35
2020-08-21 19:00:00 28.8 13 Sur 32 Sudoeste 0 -- -- 32
2020-08-21 18:00:00 31.4 14 Sudoeste 33 Sur 0 -- -- 30
2020-08-21 17:00:00 30.9 10 Sudoeste 37 Sudoeste 0 -- -- 31
2020-08-21 16:00:00 31.7 16 Sudoeste 40 Sudoeste 0 -- -- 32
2020-08-21 15:00:00 31.2 13 Oeste 35 Oeste 0 -- -- 33
2020-08-21 14:00:00 29 15 Sudoeste 34 Sudoeste 0 -- -- 35
2020-08-21 13:00:00 28.1 17 Sudoeste 35 Sudoeste 0 -- -- 38
2020-08-21 12:00:00 26.1 22 Sudoeste 37 Sudoeste 0 -- -- 44
2020-08-21 11:00:00 25.4 15 Sur 32 Sur 0 -- -- 46
2020-08-21 10:00:00 24.4 13 Sur 30 Sur 0 -- -- 47
2020-08-21 09:00:00 21.7 3 Noroeste 13 Nordeste 0 -- -- 49
2020-08-21 08:00:00 15.3 4 Sudeste 10 Sudeste 0 -- -- 61
2020-08-21 07:00:00 15.7 0 Calma 20 Sudeste 0 -- -- 53
2020-08-21 06:00:00 17.6 14 Sudeste 19 Sudeste 0 -- -- 44
2020-08-21 05:00:00 17.8 5 Sudeste 21 Sudoeste 0 -- -- 40
2020-08-21 04:00:00 18 4 Sur 14 Sudeste 0 -- -- 40
2020-08-21 03:00:00 19.5 3 Sur 19 Sur 0 -- -- 33
2020-08-21 02:00:00 22.4 14 Sur 20 Sudeste 0 -- -- 27
2020-08-21 01:00:00 22.4 4 Sur 17 Sudeste 0 -- -- 28
2020-08-21 00:00:00 23.2 7 Sur 19 Sur 0 -- -- 26